sensor_id;sensor_type;location;lat;lon;timestamp;P1;durP1;ratioP1;P2;durP2;ratioP2
12707;SDS011;6418;50.824;4.718;2023-05-16T00:01:16;21.77;;;5.37;;
12707;SDS011;6418;50.824;4.718;2023-05-16T00:03:43;24.10;;;5.70;;
12707;SDS011;6418;50.824;4.718;2023-05-16T00:06:10;21.53;;;5.60;;
12707;SDS011;6418;50.824;4.718;2023-05-16T00:08:37;21.73;;;5.30;;
12707;SDS011;6418;50.824;4.718;2023-05-16T00:11:05;16.63;;;5.00;;
12707;SDS011;6418;50.824;4.718;2023-05-16T00:13:32;23.87;;;5.70;;
12707;SDS011;6418;50.824;4.718;2023-05-16T00:15:59;22.27;;;5.70;;
12707;SDS011;6418;50.824;4.718;2023-05-16T00:18:29;21.20;;;5.50;;
12707;SDS011;6418;50.824;4.718;2023-05-16T00:20:56;21.73;;;5.90;;
12707;SDS011;6418;50.824;4.718;2023-05-16T00:23:23;22.23;;;6.13;;
12707;SDS011;6418;50.824;4.718;2023-05-16T00:25:51;19.37;;;5.40;;
12707;SDS011;6418;50.824;4.718;2023-05-16T00:28:19;23.33;;;6.00;;
12707;SDS011;6418;50.824;4.718;2023-05-16T00:30:46;27.43;;;6.07;;
12707;SDS011;6418;50.824;4.718;2023-05-16T00:33:13;22.73;;;5.50;;
12707;SDS011;6418;50.824;4.718;2023-05-16T00:35:40;25.83;;;5.80;;
12707;SDS011;6418;50.824;4.718;2023-05-16T00:38:08;19.77;;;5.47;;
12707;SDS011;6418;50.824;4.718;2023-05-16T00:40:35;26.77;;;5.83;;
12707;SDS011;6418;50.824;4.718;2023-05-16T00:43:02;24.40;;;6.40;;
12707;SDS011;6418;50.824;4.718;2023-05-16T00:45:31;24.53;;;5.97;;
12707;SDS011;6418;50.824;4.718;2023-05-16T00:47:58;19.20;;;5.60;;
12707;SDS011;6418;50.824;4.718;2023-05-16T00:50:25;23.20;;;5.87;;
12707;SDS011;6418;50.824;4.718;2023-05-16T00:52:52;21.07;;;5.83;;
12707;SDS011;6418;50.824;4.718;2023-05-16T00:55:19;18.50;;;5.33;;
12707;SDS011;6418;50.824;4.718;2023-05-16T00:57:46;21.23;;;5.87;;
12707;SDS011;6418;50.824;4.718;2023-05-16T01:00:13;25.57;;;5.40;;
12707;SDS011;6418;50.824;4.718;2023-05-16T01:02:41;21.53;;;5.80;;
12707;SDS011;6418;50.824;4.718;2023-05-16T01:05:09;23.30;;;5.50;;
12707;SDS011;6418;50.824;4.718;2023-05-16T01:07:37;16.13;;;4.93;;
12707;SDS011;6418;50.824;4.718;2023-05-16T01:10:04;17.30;;;4.80;;
12707;SDS011;6418;50.824;4.718;2023-05-16T01:12:35;23.83;;;5.60;;
12707;SDS011;6418;50.824;4.718;2023-05-16T01:15:07;23.20;;;6.20;;
12707;SDS011;6418;50.824;4.718;2023-05-16T01:17:43;24.90;;;5.40;;
12707;SDS011;6418;50.824;4.718;2023-05-16T01:20:19;22.83;;;5.60;;
12707;SDS011;6418;50.824;4.718;2023-05-16T01:23:03;20.70;;;5.57;;
12707;SDS011;6418;50.824;4.718;2023-05-16T01:25:45;19.23;;;5.43;;
12707;SDS011;6418;50.824;4.718;2023-05-16T01:28:24;21.43;;;6.00;;
12707;SDS011;6418;50.824;4.718;2023-05-16T01:30:52;16.00;;;5.07;;
12707;SDS011;6418;50.824;4.718;2023-05-16T01:33:19;22.97;;;5.67;;
12707;SDS011;6418;50.824;4.718;2023-05-16T01:35:49;24.83;;;5.90;;
12707;SDS011;6418;50.824;4.718;2023-05-16T01:38:24;23.53;;;5.40;;
12707;SDS011;6418;50.824;4.718;2023-05-16T01:40:52;20.30;;;5.37;;
12707;SDS011;6418;50.824;4.718;2023-05-16T01:43:36;20.97;;;5.00;;
12707;SDS011;6418;50.824;4.718;2023-05-16T01:46:08;19.67;;;5.73;;
12707;SDS011;6418;50.824;4.718;2023-05-16T01:48:38;19.60;;;5.30;;
12707;SDS011;6418;50.824;4.718;2023-05-16T01:51:15;19.83;;;5.30;;
12707;SDS011;6418;50.824;4.718;2023-05-16T01:53:43;20.03;;;5.07;;
12707;SDS011;6418;50.824;4.718;2023-05-16T01:56:12;24.80;;;5.97;;
12707;SDS011;6418;50.824;4.718;2023-05-16T01:58:43;23.70;;;5.80;;
12707;SDS011;6418;50.824;4.718;2023-05-16T02:01:13;19.53;;;5.03;;
12707;SDS011;6418;50.824;4.718;2023-05-16T02:03:40;20.47;;;5.30;;
12707;SDS011;6418;50.824;4.718;2023-05-16T02:06:07;25.67;;;5.70;;
12707;SDS011;6418;50.824;4.718;2023-05-16T02:08:34;26.17;;;5.20;;
12707;SDS011;6418;50.824;4.718;2023-05-16T02:11:01;25.97;;;5.60;;
12707;SDS011;6418;50.824;4.718;2023-05-16T02:13:28;18.13;;;5.57;;
12707;SDS011;6418;50.824;4.718;2023-05-16T02:15:56;23.13;;;5.33;;
12707;SDS011;6418;50.824;4.718;2023-05-16T02:18:23;22.00;;;6.00;;
12707;SDS011;6418;50.824;4.718;2023-05-16T02:20:50;25.07;;;5.73;;
12707;SDS011;6418;50.824;4.718;2023-05-16T02:23:17;25.57;;;5.37;;
12707;SDS011;6418;50.824;4.718;2023-05-16T02:25:44;23.60;;;5.80;;
12707;SDS011;6418;50.824;4.718;2023-05-16T02:28:11;24.33;;;5.93;;
12707;SDS011;6418;50.824;4.718;2023-05-16T02:30:38;19.70;;;5.73;;
12707;SDS011;6418;50.824;4.718;2023-05-16T02:33:06;21.10;;;5.40;;
12707;SDS011;6418;50.824;4.718;2023-05-16T02:35:33;19.23;;;5.10;;
12707;SDS011;6418;50.824;4.718;2023-05-16T02:38:00;22.23;;;5.47;;
12707;SDS011;6418;50.824;4.718;2023-05-16T02:40:27;21.43;;;5.50;;
12707;SDS011;6418;50.824;4.718;2023-05-16T02:42:55;22.93;;;5.87;;
12707;SDS011;6418;50.824;4.718;2023-05-16T02:45:22;21.23;;;5.77;;
12707;SDS011;6418;50.824;4.718;2023-05-16T02:47:49;24.53;;;5.90;;
12707;SDS011;6418;50.824;4.718;2023-05-16T02:50:18;23.57;;;5.63;;
12707;SDS011;6418;50.824;4.718;2023-05-16T02:52:45;19.07;;;5.80;;
12707;SDS011;6418;50.824;4.718;2023-05-16T02:55:12;19.70;;;5.33;;
12707;SDS011;6418;50.824;4.718;2023-05-16T02:57:39;24.53;;;6.57;;
12707;SDS011;6418;50.824;4.718;2023-05-16T03:00:06;21.10;;;6.00;;
12707;SDS011;6418;50.824;4.718;2023-05-16T03:02:35;20.57;;;5.50;;
12707;SDS011;6418;50.824;4.718;2023-05-16T03:05:02;17.40;;;5.73;;
12707;SDS011;6418;50.824;4.718;2023-05-16T03:07:32;26.87;;;5.93;;
12707;SDS011;6418;50.824;4.718;2023-05-16T03:09:58;23.30;;;5.60;;
12707;SDS011;6418;50.824;4.718;2023-05-16T03:12:26;24.83;;;5.40;;
12707;SDS011;6418;50.824;4.718;2023-05-16T03:14:53;19.87;;;5.57;;
12707;SDS011;6418;50.824;4.718;2023-05-16T03:17:19;20.37;;;4.90;;
12707;SDS011;6418;50.824;4.718;2023-05-16T03:19:46;21.67;;;5.43;;
12707;SDS011;6418;50.824;4.718;2023-05-16T03:22:14;22.73;;;5.90;;
12707;SDS011;6418;50.824;4.718;2023-05-16T03:24:42;30.83;;;5.67;;
12707;SDS011;6418;50.824;4.718;2023-05-16T03:27:09;20.43;;;5.57;;
12707;SDS011;6418;50.824;4.718;2023-05-16T03:29:36;21.03;;;5.67;;
12707;SDS011;6418;50.824;4.718;2023-05-16T03:32:03;20.10;;;5.47;;
12707;SDS011;6418;50.824;4.718;2023-05-16T03:34:31;20.13;;;5.63;;
12707;SDS011;6418;50.824;4.718;2023-05-16T03:36:58;22.03;;;6.20;;
12707;SDS011;6418;50.824;4.718;2023-05-16T03:39:25;19.40;;;5.80;;
12707;SDS011;6418;50.824;4.718;2023-05-16T03:41:53;25.17;;;5.87;;
12707;SDS011;6418;50.824;4.718;2023-05-16T03:44:21;16.00;;;5.40;;
12707;SDS011;6418;50.824;4.718;2023-05-16T03:46:48;22.37;;;6.00;;
12707;SDS011;6418;50.824;4.718;2023-05-16T03:49:16;20.20;;;5.30;;
12707;SDS011;6418;50.824;4.718;2023-05-16T03:51:45;23.90;;;5.80;;
12707;SDS011;6418;50.824;4.718;2023-05-16T03:54:12;25.60;;;5.57;;
12707;SDS011;6418;50.824;4.718;2023-05-16T03:56:39;19.27;;;5.67;;
12707;SDS011;6418;50.824;4.718;2023-05-16T03:59:07;19.83;;;5.73;;
12707;SDS011;6418;50.824;4.718;2023-05-16T04:01:34;21.87;;;6.13;;
12707;SDS011;6418;50.824;4.718;2023-05-16T04:04:01;22.43;;;5.67;;
12707;SDS011;6418;50.824;4.718;2023-05-16T04:06:28;19.93;;;5.37;;
12707;SDS011;6418;50.824;4.718;2023-05-16T04:08:56;24.77;;;5.90;;
12707;SDS011;6418;50.824;4.718;2023-05-16T04:11:23;22.13;;;6.07;;
12707;SDS011;6418;50.824;4.718;2023-05-16T04:13:50;25.60;;;6.00;;
12707;SDS011;6418;50.824;4.718;2023-05-16T04:16:19;20.60;;;5.63;;
12707;SDS011;6418;50.824;4.718;2023-05-16T04:18:46;20.83;;;5.87;;
12707;SDS011;6418;50.824;4.718;2023-05-16T04:21:13;22.97;;;5.90;;
12707;SDS011;6418;50.824;4.718;2023-05-16T04:23:40;26.80;;;5.77;;
12707;SDS011;6418;50.824;4.718;2023-05-16T04:26:07;16.63;;;5.47;;
12707;SDS011;6418;50.824;4.718;2023-05-16T04:28:34;23.87;;;6.57;;
12707;SDS011;6418;50.824;4.718;2023-05-16T04:31:01;19.27;;;6.20;;
12707;SDS011;6418;50.824;4.718;2023-05-16T04:33:30;18.90;;;5.53;;
12707;SDS011;6418;50.824;4.718;2023-05-16T04:35:57;26.60;;;5.93;;
12707;SDS011;6418;50.824;4.718;2023-05-16T04:38:24;20.37;;;5.93;;
12707;SDS011;6418;50.824;4.718;2023-05-16T04:40:51;18.27;;;5.67;;
12707;SDS011;6418;50.824;4.718;2023-05-16T04:43:18;18.43;;;5.67;;
12707;SDS011;6418;50.824;4.718;2023-05-16T04:45:45;23.27;;;5.80;;
12707;SDS011;6418;50.824;4.718;2023-05-16T04:48:12;24.00;;;5.77;;
12707;SDS011;6418;50.824;4.718;2023-05-16T04:50:41;18.83;;;6.27;;
12707;SDS011;6418;50.824;4.718;2023-05-16T04:53:08;26.97;;;5.90;;
12707;SDS011;6418;50.824;4.718;2023-05-16T04:55:35;21.63;;;6.17;;
12707;SDS011;6418;50.824;4.718;2023-05-16T04:58:02;24.87;;;6.27;;
12707;SDS011;6418;50.824;4.718;2023-05-16T05:00:29;17.47;;;5.73;;
12707;SDS011;6418;50.824;4.718;2023-05-16T05:02:56;23.97;;;6.17;;
12707;SDS011;6418;50.824;4.718;2023-05-16T05:05:23;19.97;;;6.00;;
12707;SDS011;6418;50.824;4.718;2023-05-16T05:07:51;24.00;;;6.33;;
12707;SDS011;6418;50.824;4.718;2023-05-16T05:10:18;16.67;;;5.93;;
12707;SDS011;6418;50.824;4.718;2023-05-16T05:12:45;19.53;;;6.00;;
12707;SDS011;6418;50.824;4.718;2023-05-16T05:15:12;25.23;;;6.00;;
12707;SDS011;6418;50.824;4.718;2023-05-16T05:17:39;22.77;;;6.27;;
12707;SDS011;6418;50.824;4.718;2023-05-16T05:20:06;21.43;;;5.93;;
12707;SDS011;6418;50.824;4.718;2023-05-16T05:22:34;20.33;;;5.83;;
12707;SDS011;6418;50.824;4.718;2023-05-16T05:25:03;23.00;;;5.80;;
12707;SDS011;6418;50.824;4.718;2023-05-16T05:27:30;21.87;;;5.97;;
12707;SDS011;6418;50.824;4.718;2023-05-16T05:29:57;22.80;;;6.20;;
12707;SDS011;6418;50.824;4.718;2023-05-16T05:32:24;21.50;;;5.67;;
12707;SDS011;6418;50.824;4.718;2023-05-16T05:34:51;16.93;;;5.47;;
12707;SDS011;6418;50.824;4.718;2023-05-16T05:37:18;20.37;;;5.67;;
12707;SDS011;6418;50.824;4.718;2023-05-16T05:39:45;22.10;;;5.83;;
12707;SDS011;6418;50.824;4.718;2023-05-16T05:42:13;22.10;;;6.17;;
12707;SDS011;6418;50.824;4.718;2023-05-16T05:44:40;18.50;;;5.73;;
12707;SDS011;6418;50.824;4.718;2023-05-16T05:47:07;27.50;;;6.07;;
12707;SDS011;6418;50.824;4.718;2023-05-16T05:49:35;22.80;;;5.83;;
12707;SDS011;6418;50.824;4.718;2023-05-16T05:52:02;17.13;;;5.50;;
12707;SDS011;6418;50.824;4.718;2023-05-16T05:54:30;21.13;;;5.80;;
12707;SDS011;6418;50.824;4.718;2023-05-16T05:56:57;19.50;;;5.70;;
12707;SDS011;6418;50.824;4.718;2023-05-16T05:59:25;23.50;;;5.50;;
12707;SDS011;6418;50.824;4.718;2023-05-16T06:01:53;19.80;;;5.20;;
12707;SDS011;6418;50.824;4.718;2023-05-16T06:04:20;17.03;;;5.57;;
12707;SDS011;6418;50.824;4.718;2023-05-16T06:06:47;21.40;;;5.60;;
12707;SDS011;6418;50.824;4.718;2023-05-16T06:09:14;21.70;;;5.40;;
12707;SDS011;6418;50.824;4.718;2023-05-16T06:11:41;17.30;;;5.03;;
12707;SDS011;6418;50.824;4.718;2023-05-16T06:14:09;19.03;;;5.10;;
12707;SDS011;6418;50.824;4.718;2023-05-16T06:16:38;19.33;;;5.20;;
12707;SDS011;6418;50.824;4.718;2023-05-16T06:19:05;18.43;;;5.07;;
12707;SDS011;6418;50.824;4.718;2023-05-16T06:21:32;18.53;;;4.60;;
12707;SDS011;6418;50.824;4.718;2023-05-16T06:23:59;21.47;;;5.13;;
12707;SDS011;6418;50.824;4.718;2023-05-16T06:26:26;19.27;;;4.80;;
12707;SDS011;6418;50.824;4.718;2023-05-16T06:28:52;16.33;;;4.60;;
12707;SDS011;6418;50.824;4.718;2023-05-16T06:31:20;19.60;;;4.87;;
12707;SDS011;6418;50.824;4.718;2023-05-16T06:33:48;15.60;;;4.67;;
12707;SDS011;6418;50.824;4.718;2023-05-16T06:36:15;16.47;;;4.30;;
12707;SDS011;6418;50.824;4.718;2023-05-16T06:38:42;14.23;;;4.00;;
12707;SDS011;6418;50.824;4.718;2023-05-16T06:41:09;17.97;;;4.57;;
12707;SDS011;6418;50.824;4.718;2023-05-16T06:43:36;13.80;;;4.60;;
12707;SDS011;6418;50.824;4.718;2023-05-16T06:46:03;17.03;;;4.77;;
12707;SDS011;6418;50.824;4.718;2023-05-16T06:48:30;14.97;;;4.47;;
12707;SDS011;6418;50.824;4.718;2023-05-16T06:50:59;13.20;;;4.37;;
12707;SDS011;6418;50.824;4.718;2023-05-16T06:53:26;16.80;;;4.70;;
12707;SDS011;6418;50.824;4.718;2023-05-16T06:55:53;16.67;;;4.80;;
12707;SDS011;6418;50.824;4.718;2023-05-16T06:58:20;15.47;;;4.40;;
12707;SDS011;6418;50.824;4.718;2023-05-16T07:00:47;13.93;;;4.50;;
12707;SDS011;6418;50.824;4.718;2023-05-16T07:03:15;14.23;;;4.50;;
12707;SDS011;6418;50.824;4.718;2023-05-16T07:05:42;14.10;;;4.30;;
12707;SDS011;6418;50.824;4.718;2023-05-16T07:08:10;16.47;;;4.40;;
12707;SDS011;6418;50.824;4.718;2023-05-16T07:10:37;14.67;;;4.17;;
12707;SDS011;6418;50.824;4.718;2023-05-16T07:13:05;18.13;;;4.63;;
12707;SDS011;6418;50.824;4.718;2023-05-16T07:15:32;19.20;;;4.20;;
12707;SDS011;6418;50.824;4.718;2023-05-16T07:17:59;12.37;;;3.70;;
12707;SDS011;6418;50.824;4.718;2023-05-16T07:20:26;13.20;;;4.10;;
12707;SDS011;6418;50.824;4.718;2023-05-16T07:22:53;13.10;;;3.83;;
12707;SDS011;6418;50.824;4.718;2023-05-16T07:25:22;12.93;;;4.30;;
12707;SDS011;6418;50.824;4.718;2023-05-16T07:27:50;14.00;;;4.00;;
12707;SDS011;6418;50.824;4.718;2023-05-16T07:30:17;17.67;;;4.50;;
12707;SDS011;6418;50.824;4.718;2023-05-16T07:32:44;14.53;;;3.83;;
12707;SDS011;6418;50.824;4.718;2023-05-16T07:35:11;11.73;;;3.80;;
12707;SDS011;6418;50.824;4.718;2023-05-16T07:37:38;13.20;;;3.97;;
12707;SDS011;6418;50.824;4.718;2023-05-16T07:40:07;14.67;;;4.03;;
12707;SDS011;6418;50.824;4.718;2023-05-16T07:42:36;12.20;;;3.93;;
12707;SDS011;6418;50.824;4.718;2023-05-16T07:45:04;17.27;;;4.17;;
12707;SDS011;6418;50.824;4.718;2023-05-16T07:47:32;11.63;;;3.67;;
12707;SDS011;6418;50.824;4.718;2023-05-16T07:49:59;14.23;;;4.00;;
12707;SDS011;6418;50.824;4.718;2023-05-16T07:52:26;10.67;;;3.97;;
12707;SDS011;6418;50.824;4.718;2023-05-16T07:54:53;13.80;;;4.10;;
12707;SDS011;6418;50.824;4.718;2023-05-16T07:57:20;8.10;;;3.13;;
12707;SDS011;6418;50.824;4.718;2023-05-16T07:59:49;11.43;;;3.90;;
12707;SDS011;6418;50.824;4.718;2023-05-16T08:02:17;9.27;;;3.33;;
12707;SDS011;6418;50.824;4.718;2023-05-16T08:04:44;12.10;;;3.50;;
12707;SDS011;6418;50.824;4.718;2023-05-16T08:07:12;11.87;;;3.90;;
12707;SDS011;6418;50.824;4.718;2023-05-16T08:09:39;13.07;;;3.73;;
12707;SDS011;6418;50.824;4.718;2023-05-16T08:12:07;13.67;;;3.73;;
12707;SDS011;6418;50.824;4.718;2023-05-16T08:14:34;11.67;;;3.63;;
12707;SDS011;6418;50.824;4.718;2023-05-16T08:17:03;12.10;;;3.60;;
12707;SDS011;6418;50.824;4.718;2023-05-16T08:19:30;13.23;;;3.70;;
12707;SDS011;6418;50.824;4.718;2023-05-16T08:21:58;13.10;;;3.50;;
12707;SDS011;6418;50.824;4.718;2023-05-16T08:24:24;14.67;;;3.60;;
12707;SDS011;6418;50.824;4.718;2023-05-16T08:26:52;10.23;;;3.57;;
12707;SDS011;6418;50.824;4.718;2023-05-16T08:29:18;11.00;;;3.73;;
12707;SDS011;6418;50.824;4.718;2023-05-16T08:31:45;14.27;;;3.63;;
12707;SDS011;6418;50.824;4.718;2023-05-16T08:34:14;12.67;;;3.60;;
12707;SDS011;6418;50.824;4.718;2023-05-16T08:36:41;11.97;;;3.63;;
12707;SDS011;6418;50.824;4.718;2023-05-16T08:39:08;13.50;;;3.83;;
12707;SDS011;6418;50.824;4.718;2023-05-16T08:41:36;10.63;;;3.60;;
12707;SDS011;6418;50.824;4.718;2023-05-16T08:44:04;13.07;;;3.97;;
12707;SDS011;6418;50.824;4.718;2023-05-16T08:46:31;14.20;;;3.80;;
12707;SDS011;6418;50.824;4.718;2023-05-16T08:48:59;14.77;;;3.90;;
12707;SDS011;6418;50.824;4.718;2023-05-16T08:51:31;11.83;;;3.57;;
12707;SDS011;6418;50.824;4.718;2023-05-16T08:54:02;9.90;;;3.50;;
12707;SDS011;6418;50.824;4.718;2023-05-16T08:56:31;12.93;;;3.87;;
12707;SDS011;6418;50.824;4.718;2023-05-16T08:58:59;9.50;;;3.63;;
12707;SDS011;6418;50.824;4.718;2023-05-16T09:01:29;8.27;;;3.43;;
12707;SDS011;6418;50.824;4.718;2023-05-16T09:03:56;7.93;;;3.10;;
12707;SDS011;6418;50.824;4.718;2023-05-16T09:06:24;8.57;;;3.10;;
12707;SDS011;6418;50.824;4.718;2023-05-16T09:08:52;9.03;;;3.40;;
12707;SDS011;6418;50.824;4.718;2023-05-16T09:11:19;8.40;;;3.27;;
12707;SDS011;6418;50.824;4.718;2023-05-16T09:13:46;8.97;;;3.23;;
12707;SDS011;6418;50.824;4.718;2023-05-16T09:16:14;9.63;;;3.13;;
12707;SDS011;6418;50.824;4.718;2023-05-16T09:18:42;11.57;;;3.60;;
12707;SDS011;6418;50.824;4.718;2023-05-16T09:21:11;12.70;;;3.50;;
12707;SDS011;6418;50.824;4.718;2023-05-16T09:23:41;8.20;;;3.47;;
12707;SDS011;6418;50.824;4.718;2023-05-16T09:26:10;9.13;;;3.60;;
12707;SDS011;6418;50.824;4.718;2023-05-16T09:28:37;13.23;;;3.83;;
12707;SDS011;6418;50.824;4.718;2023-05-16T09:31:18;10.10;;;3.60;;
12707;SDS011;6418;50.824;4.718;2023-05-16T09:33:46;10.73;;;3.40;;
12707;SDS011;6418;50.824;4.718;2023-05-16T09:36:14;12.10;;;4.13;;
12707;SDS011;6418;50.824;4.718;2023-05-16T09:38:41;10.00;;;3.80;;
12707;SDS011;6418;50.824;4.718;2023-05-16T09:41:10;8.50;;;3.10;;
12707;SDS011;6418;50.824;4.718;2023-05-16T09:43:37;10.63;;;3.50;;
12707;SDS011;6418;50.824;4.718;2023-05-16T09:46:05;13.73;;;3.67;;
12707;SDS011;6418;50.824;4.718;2023-05-16T09:48:32;11.37;;;3.87;;
12707;SDS011;6418;50.824;4.718;2023-05-16T09:50:59;11.13;;;3.60;;
12707;SDS011;6418;50.824;4.718;2023-05-16T09:53:30;11.07;;;3.40;;
12707;SDS011;6418;50.824;4.718;2023-05-16T09:56:02;9.83;;;3.60;;
12707;SDS011;6418;50.824;4.718;2023-05-16T09:58:32;10.40;;;3.80;;
12707;SDS011;6418;50.824;4.718;2023-05-16T10:01:00;12.53;;;3.40;;
12707;SDS011;6418;50.824;4.718;2023-05-16T10:03:28;9.20;;;3.20;;
12707;SDS011;6418;50.824;4.718;2023-05-16T10:05:55;9.67;;;3.37;;
12707;SDS011;6418;50.824;4.718;2023-05-16T10:08:24;12.30;;;3.77;;
12707;SDS011;6418;50.824;4.718;2023-05-16T10:10:52;8.50;;;3.50;;
12707;SDS011;6418;50.824;4.718;2023-05-16T10:13:20;14.10;;;4.00;;
12707;SDS011;6418;50.824;4.718;2023-05-16T10:15:50;11.77;;;3.67;;
12707;SDS011;6418;50.824;4.718;2023-05-16T10:18:20;6.90;;;2.70;;
12707;SDS011;6418;50.824;4.718;2023-05-16T10:20:48;11.73;;;3.70;;
12707;SDS011;6418;50.824;4.718;2023-05-16T10:23:19;11.70;;;3.50;;
12707;SDS011;6418;50.824;4.718;2023-05-16T10:25:47;8.37;;;3.33;;
12707;SDS011;6418;50.824;4.718;2023-05-16T10:28:15;10.60;;;3.50;;
12707;SDS011;6418;50.824;4.718;2023-05-16T10:30:49;12.90;;;3.40;;
12707;SDS011;6418;50.824;4.718;2023-05-16T10:33:17;5.30;;;2.83;;
12707;SDS011;6418;50.824;4.718;2023-05-16T10:35:44;9.07;;;3.37;;
12707;SDS011;6418;50.824;4.718;2023-05-16T10:38:12;10.67;;;3.13;;
12707;SDS011;6418;50.824;4.718;2023-05-16T10:40:41;15.97;;;3.87;;
12707;SDS011;6418;50.824;4.718;2023-05-16T10:43:09;8.33;;;3.60;;
12707;SDS011;6418;50.824;4.718;2023-05-16T10:45:38;8.30;;;3.17;;
12707;SDS011;6418;50.824;4.718;2023-05-16T10:48:07;11.47;;;3.30;;
12707;SDS011;6418;50.824;4.718;2023-05-16T10:50:38;9.07;;;3.40;;
12707;SDS011;6418;50.824;4.718;2023-05-16T10:56:06;10.20;;;3.53;;
12707;SDS011;6418;50.824;4.718;2023-05-16T10:58:45;6.23;;;3.17;;
12707;SDS011;6418;50.824;4.718;2023-05-16T11:01:20;8.80;;;3.43;;
12707;SDS011;6418;50.824;4.718;2023-05-16T11:04:05;4.93;;;2.63;;
12707;SDS011;6418;50.824;4.718;2023-05-16T11:06:44;3.20;;;2.40;;
12707;SDS011;6418;50.824;4.718;2023-05-16T11:09:20;10.53;;;3.17;;
12707;SDS011;6418;50.824;4.718;2023-05-16T11:11:56;9.50;;;3.20;;
12707;SDS011;6418;50.824;4.718;2023-05-16T11:14:25;8.53;;;2.90;;
12707;SDS011;6418;50.824;4.718;2023-05-16T11:16:59;5.83;;;3.07;;
12707;SDS011;6418;50.824;4.718;2023-05-16T11:19:32;10.27;;;3.53;;
12707;SDS011;6418;50.824;4.718;2023-05-16T11:22:04;8.83;;;3.10;;
12707;SDS011;6418;50.824;4.718;2023-05-16T11:24:50;9.77;;;3.40;;
12707;SDS011;6418;50.824;4.718;2023-05-16T11:27:25;12.27;;;3.03;;
12707;SDS011;6418;50.824;4.718;2023-05-16T11:29:54;9.13;;;3.03;;
12707;SDS011;6418;50.824;4.718;2023-05-16T11:32:23;6.80;;;3.03;;
12707;SDS011;6418;50.824;4.718;2023-05-16T11:34:52;7.57;;;3.30;;
12707;SDS011;6418;50.824;4.718;2023-05-16T11:37:19;8.43;;;3.20;;
12707;SDS011;6418;50.824;4.718;2023-05-16T11:39:46;7.67;;;2.90;;
12707;SDS011;6418;50.824;4.718;2023-05-16T11:42:14;8.90;;;3.20;;
12707;SDS011;6418;50.824;4.718;2023-05-16T11:44:42;7.90;;;2.90;;
12707;SDS011;6418;50.824;4.718;2023-05-16T11:47:09;8.70;;;3.27;;
12707;SDS011;6418;50.824;4.718;2023-05-16T11:49:36;9.20;;;3.23;;
12707;SDS011;6418;50.824;4.718;2023-05-16T11:52:06;7.40;;;3.40;;
12707;SDS011;6418;50.824;4.718;2023-05-16T11:54:34;7.23;;;2.83;;
12707;SDS011;6418;50.824;4.718;2023-05-16T11:57:01;8.53;;;3.17;;
12707;SDS011;6418;50.824;4.718;2023-05-16T11:59:28;11.13;;;3.13;;
12707;SDS011;6418;50.824;4.718;2023-05-16T12:01:56;10.20;;;3.10;;
12707;SDS011;6418;50.824;4.718;2023-05-16T12:04:23;6.53;;;2.93;;
12707;SDS011;6418;50.824;4.718;2023-05-16T12:06:57;11.17;;;3.33;;
12707;SDS011;6418;50.824;4.718;2023-05-16T12:09:27;9.13;;;3.57;;
12707;SDS011;6418;50.824;4.718;2023-05-16T12:11:54;10.83;;;3.37;;
12707;SDS011;6418;50.824;4.718;2023-05-16T12:14:21;9.33;;;3.30;;
12707;SDS011;6418;50.824;4.718;2023-05-16T12:16:50;9.77;;;3.40;;
12707;SDS011;6418;50.824;4.718;2023-05-16T12:19:18;10.30;;;3.77;;
12707;SDS011;6418;50.824;4.718;2023-05-16T12:21:46;7.70;;;3.67;;
12707;SDS011;6418;50.824;4.718;2023-05-16T12:24:13;12.00;;;3.80;;
12707;SDS011;6418;50.824;4.718;2023-05-16T12:26:43;7.37;;;3.17;;
12707;SDS011;6418;50.824;4.718;2023-05-16T12:29:10;9.33;;;3.10;;
12707;SDS011;6418;50.824;4.718;2023-05-16T12:31:37;9.37;;;3.13;;
12707;SDS011;6418;50.824;4.718;2023-05-16T12:34:13;9.97;;;3.13;;
12707;SDS011;6418;50.824;4.718;2023-05-16T12:36:41;7.53;;;3.17;;
12707;SDS011;6418;50.824;4.718;2023-05-16T12:39:10;10.13;;;3.30;;
12707;SDS011;6418;50.824;4.718;2023-05-16T12:41:39;8.87;;;3.37;;
12707;SDS011;6418;50.824;4.718;2023-05-16T12:44:12;9.70;;;3.67;;
12707;SDS011;6418;50.824;4.718;2023-05-16T12:46:41;8.70;;;3.10;;
12707;SDS011;6418;50.824;4.718;2023-05-16T12:49:09;10.60;;;3.43;;
12707;SDS011;6418;50.824;4.718;2023-05-16T12:51:37;10.27;;;3.40;;
12707;SDS011;6418;50.824;4.718;2023-05-16T12:54:07;9.70;;;3.60;;
12707;SDS011;6418;50.824;4.718;2023-05-16T12:56:35;7.83;;;3.30;;
12707;SDS011;6418;50.824;4.718;2023-05-16T12:59:03;7.73;;;3.03;;
12707;SDS011;6418;50.824;4.718;2023-05-16T13:01:31;10.57;;;3.37;;
12707;SDS011;6418;50.824;4.718;2023-05-16T13:03:59;8.27;;;3.23;;
12707;SDS011;6418;50.824;4.718;2023-05-16T13:06:26;9.33;;;2.90;;
12707;SDS011;6418;50.824;4.718;2023-05-16T13:08:53;7.53;;;3.00;;
12707;SDS011;6418;50.824;4.718;2023-05-16T13:11:20;8.50;;;3.37;;
12707;SDS011;6418;50.824;4.718;2023-05-16T13:13:47;8.50;;;3.30;;
12707;SDS011;6418;50.824;4.718;2023-05-16T13:16:14;10.50;;;3.10;;
12707;SDS011;6418;50.824;4.718;2023-05-16T13:18:42;7.90;;;3.20;;
12707;SDS011;6418;50.824;4.718;2023-05-16T13:21:10;8.50;;;3.30;;
12707;SDS011;6418;50.824;4.718;2023-05-16T13:23:37;9.10;;;3.10;;
12707;SDS011;6418;50.824;4.718;2023-05-16T13:26:04;8.17;;;3.07;;
12707;SDS011;6418;50.824;4.718;2023-05-16T13:28:31;7.90;;;3.33;;
12707;SDS011;6418;50.824;4.718;2023-05-16T13:30:58;8.17;;;3.40;;
12707;SDS011;6418;50.824;4.718;2023-05-16T13:33:25;8.63;;;3.40;;
12707;SDS011;6418;50.824;4.718;2023-05-16T13:35:53;8.37;;;3.13;;
12707;SDS011;6418;50.824;4.718;2023-05-16T13:38:21;11.00;;;3.70;;
12707;SDS011;6418;50.824;4.718;2023-05-16T13:40:48;10.47;;;3.47;;
12707;SDS011;6418;50.824;4.718;2023-05-16T13:43:15;11.27;;;3.37;;
12707;SDS011;6418;50.824;4.718;2023-05-16T13:45:42;8.27;;;3.10;;
12707;SDS011;6418;50.824;4.718;2023-05-16T13:48:09;6.90;;;3.10;;
12707;SDS011;6418;50.824;4.718;2023-05-16T13:50:36;8.73;;;3.17;;
12707;SDS011;6418;50.824;4.718;2023-05-16T13:53:05;8.23;;;3.10;;
12707;SDS011;6418;50.824;4.718;2023-05-16T13:55:32;9.30;;;2.85;;
12707;SDS011;6418;50.824;4.718;2023-05-16T13:57:59;9.10;;;3.38;;
12707;SDS011;6418;50.824;4.718;2023-05-16T14:00:26;9.40;;;3.17;;
12707;SDS011;6418;50.824;4.718;2023-05-16T14:02:53;9.27;;;3.30;;
12707;SDS011;6418;50.824;4.718;2023-05-16T14:05:21;5.00;;;2.77;;
12707;SDS011;6418;50.824;4.718;2023-05-16T14:07:48;9.40;;;3.30;;
12707;SDS011;6418;50.824;4.718;2023-05-16T14:10:16;10.70;;;3.50;;
12707;SDS011;6418;50.824;4.718;2023-05-16T14:12:43;8.83;;;3.60;;
12707;SDS011;6418;50.824;4.718;2023-05-16T14:15:10;12.30;;;3.40;;
12707;SDS011;6418;50.824;4.718;2023-05-16T14:17:37;9.43;;;3.50;;
12707;SDS011;6418;50.824;4.718;2023-05-16T14:20:05;10.20;;;3.10;;
12707;SDS011;6418;50.824;4.718;2023-05-16T14:22:34;7.03;;;2.70;;
12707;SDS011;6418;50.824;4.718;2023-05-16T14:25:02;10.90;;;3.60;;
12707;SDS011;6418;50.824;4.718;2023-05-16T14:27:31;10.25;;;3.90;;
12707;SDS011;6418;50.824;4.718;2023-05-16T14:29:58;9.40;;;3.63;;
12707;SDS011;6418;50.824;4.718;2023-05-16T14:32:26;10.33;;;3.30;;
12707;SDS011;6418;50.824;4.718;2023-05-16T14:34:53;9.40;;;3.17;;
12707;SDS011;6418;50.824;4.718;2023-05-16T14:37:20;7.67;;;3.67;;
12707;SDS011;6418;50.824;4.718;2023-05-16T14:39:47;8.43;;;3.33;;
12707;SDS011;6418;50.824;4.718;2023-05-16T14:42:15;9.90;;;3.23;;
12707;SDS011;6418;50.824;4.718;2023-05-16T14:44:44;8.47;;;3.20;;
12707;SDS011;6418;50.824;4.718;2023-05-16T14:47:11;8.77;;;3.17;;
12707;SDS011;6418;50.824;4.718;2023-05-16T14:49:38;11.30;;;3.50;;
12707;SDS011;6418;50.824;4.718;2023-05-16T14:52:05;9.67;;;3.30;;
12707;SDS011;6418;50.824;4.718;2023-05-16T14:54:32;10.03;;;3.27;;
12707;SDS011;6418;50.824;4.718;2023-05-16T14:57:00;11.00;;;3.40;;
12707;SDS011;6418;50.824;4.718;2023-05-16T14:59:29;10.97;;;3.30;;